sensor_id;sensor_type;location;lat;lon;timestamp;P1;durP1;ratioP1;P2;durP2;ratioP2
75758;SDS011;64371;47.566;19.086;2023-01-15T00:00:42;36.50;;;16.07;;
75758;SDS011;64371;47.566;19.086;2023-01-15T00:03:45;41.72;;;16.77;;
75758;SDS011;64371;47.566;19.086;2023-01-15T00:06:51;30.98;;;11.15;;
75758;SDS011;64371;47.566;19.086;2023-01-15T00:09:55;26.90;;;10.60;;
75758;SDS011;64371;47.566;19.086;2023-01-15T00:13:00;41.13;;;14.50;;
75758;SDS011;64371;47.566;19.086;2023-01-15T00:16:04;40.33;;;16.47;;
75758;SDS011;64371;47.566;19.086;2023-01-15T00:19:08;38.22;;;15.30;;
75758;SDS011;64371;47.566;19.086;2023-01-15T00:22:12;42.60;;;17.05;;
75758;SDS011;64371;47.566;19.086;2023-01-15T00:25:15;41.70;;;16.73;;
75758;SDS011;64371;47.566;19.086;2023-01-15T00:28:36;26.17;;;11.32;;
75758;SDS011;64371;47.566;19.086;2023-01-15T00:31:40;36.70;;;15.40;;
75758;SDS011;64371;47.566;19.086;2023-01-15T00:34:43;41.35;;;15.30;;
75758;SDS011;64371;47.566;19.086;2023-01-15T00:37:49;31.77;;;12.45;;
75758;SDS011;64371;47.566;19.086;2023-01-15T00:40:53;30.42;;;11.27;;
75758;SDS011;64371;47.566;19.086;2023-01-15T00:43:55;39.30;;;14.95;;
75758;SDS011;64371;47.566;19.086;2023-01-15T00:47:05;37.63;;;13.00;;
75758;SDS011;64371;47.566;19.086;2023-01-15T00:50:11;24.30;;;11.85;;
75758;SDS011;64371;47.566;19.086;2023-01-15T00:53:14;21.50;;;9.38;;
75758;SDS011;64371;47.566;19.086;2023-01-15T00:56:17;35.80;;;14.50;;
75758;SDS011;64371;47.566;19.086;2023-01-15T00:59:19;30.65;;;13.13;;
75758;SDS011;64371;47.566;19.086;2023-01-15T01:02:25;26.13;;;11.00;;
75758;SDS011;64371;47.566;19.086;2023-01-15T01:05:28;22.63;;;10.52;;
75758;SDS011;64371;47.566;19.086;2023-01-15T01:08:33;33.70;;;14.40;;
75758;SDS011;64371;47.566;19.086;2023-01-15T01:11:35;16.55;;;8.00;;
75758;SDS011;64371;47.566;19.086;2023-01-15T01:14:41;18.75;;;7.90;;
75758;SDS011;64371;47.566;19.086;2023-01-15T01:17:46;26.97;;;11.57;;
75758;SDS011;64371;47.566;19.086;2023-01-15T01:20:48;24.58;;;9.60;;
75758;SDS011;64371;47.566;19.086;2023-01-15T01:23:54;21.13;;;8.50;;
75758;SDS011;64371;47.566;19.086;2023-01-15T01:27:01;29.77;;;11.18;;
75758;SDS011;64371;47.566;19.086;2023-01-15T01:30:06;14.95;;;6.55;;
75758;SDS011;64371;47.566;19.086;2023-01-15T01:33:09;28.53;;;12.10;;
75758;SDS011;64371;47.566;19.086;2023-01-15T01:36:13;30.05;;;12.60;;
75758;SDS011;64371;47.566;19.086;2023-01-15T01:39:18;29.88;;;13.35;;
75758;SDS011;64371;47.566;19.086;2023-01-15T01:42:21;26.98;;;11.30;;
75758;SDS011;64371;47.566;19.086;2023-01-15T01:45:25;28.75;;;11.75;;
75758;SDS011;64371;47.566;19.086;2023-01-15T01:48:33;23.53;;;9.20;;
75758;SDS011;64371;47.566;19.086;2023-01-15T01:51:42;23.33;;;9.68;;
75758;SDS011;64371;47.566;19.086;2023-01-15T01:54:50;16.45;;;7.60;;
75758;SDS011;64371;47.566;19.086;2023-01-15T01:57:55;18.98;;;8.13;;
75758;SDS011;64371;47.566;19.086;2023-01-15T02:01:02;18.00;;;8.20;;
75758;SDS011;64371;47.566;19.086;2023-01-15T02:04:06;18.90;;;7.83;;
75758;SDS011;64371;47.566;19.086;2023-01-15T02:07:13;20.23;;;9.68;;
75758;SDS011;64371;47.566;19.086;2023-01-15T02:10:17;17.10;;;7.82;;
75758;SDS011;64371;47.566;19.086;2023-01-15T02:13:24;24.48;;;10.13;;
75758;SDS011;64371;47.566;19.086;2023-01-15T02:16:50;13.80;;;6.85;;
75758;SDS011;64371;47.566;19.086;2023-01-15T02:30:24;20.63;;;8.82;;
75758;SDS011;64371;47.566;19.086;2023-01-15T02:33:37;21.38;;;9.10;;
75758;SDS011;64371;47.566;19.086;2023-01-15T02:36:45;22.87;;;10.17;;
75758;SDS011;64371;47.566;19.086;2023-01-15T02:39:58;21.75;;;9.00;;
75758;SDS011;64371;47.566;19.086;2023-01-15T02:43:05;23.48;;;9.88;;
75758;SDS011;64371;47.566;19.086;2023-01-15T02:46:10;22.63;;;8.98;;
75758;SDS011;64371;47.566;19.086;2023-01-15T02:49:19;18.02;;;8.65;;
75758;SDS011;64371;47.566;19.086;2023-01-15T02:52:25;22.80;;;9.80;;
75758;SDS011;64371;47.566;19.086;2023-01-15T02:55:31;18.15;;;7.78;;
75758;SDS011;64371;47.566;19.086;2023-01-15T02:58:38;21.48;;;10.00;;
75758;SDS011;64371;47.566;19.086;2023-01-15T03:01:44;18.58;;;7.63;;
75758;SDS011;64371;47.566;19.086;2023-01-15T03:04:55;23.67;;;9.90;;
75758;SDS011;64371;47.566;19.086;2023-01-15T03:08:21;24.67;;;10.83;;
75758;SDS011;64371;47.566;19.086;2023-01-15T03:11:24;26.52;;;11.43;;
75758;SDS011;64371;47.566;19.086;2023-01-15T03:14:57;14.57;;;5.43;;
75758;SDS011;64371;47.566;19.086;2023-01-15T03:18:44;15.25;;;6.00;;
75758;SDS011;64371;47.566;19.086;2023-01-15T03:22:14;16.83;;;7.63;;
75758;SDS011;64371;47.566;19.086;2023-01-15T03:25:24;22.60;;;10.50;;
75758;SDS011;64371;47.566;19.086;2023-01-15T03:28:30;17.73;;;7.65;;
75758;SDS011;64371;47.566;19.086;2023-01-15T03:31:38;9.20;;;4.30;;
75758;SDS011;64371;47.566;19.086;2023-01-15T03:34:47;12.27;;;6.13;;
75758;SDS011;64371;47.566;19.086;2023-01-15T03:37:53;17.95;;;6.80;;
75758;SDS011;64371;47.566;19.086;2023-01-15T03:48:00;25.67;;;9.93;;
75758;SDS011;64371;47.566;19.086;2023-01-15T03:51:11;29.85;;;11.85;;
75758;SDS011;64371;47.566;19.086;2023-01-15T03:54:21;18.23;;;8.50;;
75758;SDS011;64371;47.566;19.086;2023-01-15T03:57:31;17.17;;;7.40;;
75758;SDS011;64371;47.566;19.086;2023-01-15T04:00:43;24.88;;;10.23;;
75758;SDS011;64371;47.566;19.086;2023-01-15T04:03:52;18.08;;;7.57;;
75758;SDS011;64371;47.566;19.086;2023-01-15T04:06:59;24.40;;;9.35;;
75758;SDS011;64371;47.566;19.086;2023-01-15T04:10:07;16.23;;;6.32;;
75758;SDS011;64371;47.566;19.086;2023-01-15T04:13:11;8.43;;;4.03;;
75758;SDS011;64371;47.566;19.086;2023-01-15T04:16:16;21.55;;;8.85;;
75758;SDS011;64371;47.566;19.086;2023-01-15T04:19:30;24.73;;;10.15;;
75758;SDS011;64371;47.566;19.086;2023-01-15T04:22:35;25.83;;;10.90;;
75758;SDS011;64371;47.566;19.086;2023-01-15T04:25:40;17.10;;;7.47;;
75758;SDS011;64371;47.566;19.086;2023-01-15T04:28:44;17.40;;;7.10;;
75758;SDS011;64371;47.566;19.086;2023-01-15T04:31:47;15.40;;;6.30;;
75758;SDS011;64371;47.566;19.086;2023-01-15T04:34:53;20.73;;;9.82;;
75758;SDS011;64371;47.566;19.086;2023-01-15T04:37:58;18.50;;;7.50;;
75758;SDS011;64371;47.566;19.086;2023-01-15T04:41:04;19.48;;;7.90;;
75758;SDS011;64371;47.566;19.086;2023-01-15T04:44:27;21.83;;;8.73;;
75758;SDS011;64371;47.566;19.086;2023-01-15T04:47:30;27.75;;;10.52;;
75758;SDS011;64371;47.566;19.086;2023-01-15T04:50:32;16.30;;;7.15;;
75758;SDS011;64371;47.566;19.086;2023-01-15T04:53:35;19.08;;;7.75;;
75758;SDS011;64371;47.566;19.086;2023-01-15T04:56:41;23.73;;;9.02;;
75758;SDS011;64371;47.566;19.086;2023-01-15T04:59:47;16.60;;;6.93;;
75758;SDS011;64371;47.566;19.086;2023-01-15T05:02:49;18.55;;;7.63;;
75758;SDS011;64371;47.566;19.086;2023-01-15T05:05:52;16.27;;;7.60;;
75758;SDS011;64371;47.566;19.086;2023-01-15T05:08:54;25.05;;;9.73;;
75758;SDS011;64371;47.566;19.086;2023-01-15T05:11:57;18.40;;;8.18;;
75758;SDS011;64371;47.566;19.086;2023-01-15T05:14:59;13.17;;;6.60;;
75758;SDS011;64371;47.566;19.086;2023-01-15T05:18:04;17.10;;;7.35;;
75758;SDS011;64371;47.566;19.086;2023-01-15T05:21:20;21.25;;;8.95;;
75758;SDS011;64371;47.566;19.086;2023-01-15T05:24:27;22.58;;;9.13;;
75758;SDS011;64371;47.566;19.086;2023-01-15T05:27:29;22.70;;;10.43;;
75758;SDS011;64371;47.566;19.086;2023-01-15T05:30:32;13.73;;;5.43;;
75758;SDS011;64371;47.566;19.086;2023-01-15T05:33:34;16.30;;;6.63;;
75758;SDS011;64371;47.566;19.086;2023-01-15T05:36:38;15.20;;;5.80;;
75758;SDS011;64371;47.566;19.086;2023-01-15T05:39:40;11.45;;;5.25;;
75758;SDS011;64371;47.566;19.086;2023-01-15T05:42:53;13.45;;;4.43;;
75758;SDS011;64371;47.566;19.086;2023-01-15T05:46:00;19.93;;;9.17;;
75758;SDS011;64371;47.566;19.086;2023-01-15T05:49:04;16.85;;;6.47;;
75758;SDS011;64371;47.566;19.086;2023-01-15T05:52:08;15.65;;;5.97;;
75758;SDS011;64371;47.566;19.086;2023-01-15T05:55:10;10.95;;;4.70;;
75758;SDS011;64371;47.566;19.086;2023-01-15T05:58:13;25.35;;;8.85;;
75758;SDS011;64371;47.566;19.086;2023-01-15T06:01:16;13.70;;;6.07;;
75758;SDS011;64371;47.566;19.086;2023-01-15T06:04:19;18.85;;;7.65;;
75758;SDS011;64371;47.566;19.086;2023-01-15T06:07:22;13.52;;;5.80;;
75758;SDS011;64371;47.566;19.086;2023-01-15T06:10:25;15.75;;;6.75;;
75758;SDS011;64371;47.566;19.086;2023-01-15T06:13:27;11.82;;;5.13;;
75758;SDS011;64371;47.566;19.086;2023-01-15T06:16:30;18.80;;;7.63;;
75758;SDS011;64371;47.566;19.086;2023-01-15T06:19:32;11.10;;;4.57;;
75758;SDS011;64371;47.566;19.086;2023-01-15T06:22:35;14.52;;;6.78;;
75758;SDS011;64371;47.566;19.086;2023-01-15T06:25:39;14.43;;;5.90;;
75758;SDS011;64371;47.566;19.086;2023-01-15T06:28:42;15.60;;;7.35;;
75758;SDS011;64371;47.566;19.086;2023-01-15T06:31:45;16.50;;;7.20;;
75758;SDS011;64371;47.566;19.086;2023-01-15T06:34:50;23.23;;;9.63;;
75758;SDS011;64371;47.566;19.086;2023-01-15T06:37:55;22.73;;;8.70;;
75758;SDS011;64371;47.566;19.086;2023-01-15T06:40:58;21.48;;;8.57;;
75758;SDS011;64371;47.566;19.086;2023-01-15T06:44:01;15.82;;;6.18;;
75758;SDS011;64371;47.566;19.086;2023-01-15T06:47:22;11.23;;;5.37;;
75758;SDS011;64371;47.566;19.086;2023-01-15T06:50:25;14.32;;;6.35;;
75758;SDS011;64371;47.566;19.086;2023-01-15T06:53:28;18.15;;;6.68;;
75758;SDS011;64371;47.566;19.086;2023-01-15T06:56:33;18.80;;;7.40;;
75758;SDS011;64371;47.566;19.086;2023-01-15T06:59:35;22.27;;;7.78;;
75758;SDS011;64371;47.566;19.086;2023-01-15T07:02:38;22.23;;;8.90;;
75758;SDS011;64371;47.566;19.086;2023-01-15T07:05:42;21.10;;;8.38;;
75758;SDS011;64371;47.566;19.086;2023-01-15T07:08:44;13.43;;;5.72;;
75758;SDS011;64371;47.566;19.086;2023-01-15T07:11:46;10.98;;;5.00;;
75758;SDS011;64371;47.566;19.086;2023-01-15T07:14:51;16.50;;;6.65;;
75758;SDS011;64371;47.566;19.086;2023-01-15T07:17:54;12.87;;;5.50;;
75758;SDS011;64371;47.566;19.086;2023-01-15T07:20:58;10.73;;;4.65;;
75758;SDS011;64371;47.566;19.086;2023-01-15T07:24:01;23.25;;;9.35;;
75758;SDS011;64371;47.566;19.086;2023-01-15T07:27:04;17.13;;;6.97;;
75758;SDS011;64371;47.566;19.086;2023-01-15T07:30:07;10.73;;;4.30;;
75758;SDS011;64371;47.566;19.086;2023-01-15T07:33:09;17.27;;;7.53;;
75758;SDS011;64371;47.566;19.086;2023-01-15T07:36:16;15.63;;;6.90;;
75758;SDS011;64371;47.566;19.086;2023-01-15T07:39:20;19.48;;;9.18;;
75758;SDS011;64371;47.566;19.086;2023-01-15T07:42:26;17.00;;;6.93;;
75758;SDS011;64371;47.566;19.086;2023-01-15T07:45:46;20.20;;;8.82;;
75758;SDS011;64371;47.566;19.086;2023-01-15T07:49:09;23.97;;;9.67;;
75758;SDS011;64371;47.566;19.086;2023-01-15T07:52:30;25.30;;;11.05;;
75758;SDS011;64371;47.566;19.086;2023-01-15T07:55:34;23.52;;;11.20;;
75758;SDS011;64371;47.566;19.086;2023-01-15T07:58:37;25.45;;;11.77;;
75758;SDS011;64371;47.566;19.086;2023-01-15T08:01:39;14.80;;;7.00;;
75758;SDS011;64371;47.566;19.086;2023-01-15T08:04:44;18.73;;;8.83;;
75758;SDS011;64371;47.566;19.086;2023-01-15T08:07:49;24.45;;;10.68;;
75758;SDS011;64371;47.566;19.086;2023-01-15T08:10:51;20.75;;;8.65;;
75758;SDS011;64371;47.566;19.086;2023-01-15T08:14:12;15.55;;;7.55;;
75758;SDS011;64371;47.566;19.086;2023-01-15T08:17:36;21.23;;;10.10;;
75758;SDS011;64371;47.566;19.086;2023-01-15T08:20:39;28.07;;;11.17;;
75758;SDS011;64371;47.566;19.086;2023-01-15T08:23:42;23.73;;;9.93;;
75758;SDS011;64371;47.566;19.086;2023-01-15T08:26:47;12.20;;;6.40;;
75758;SDS011;64371;47.566;19.086;2023-01-15T08:29:49;23.20;;;10.32;;
75758;SDS011;64371;47.566;19.086;2023-01-15T08:32:51;15.82;;;6.75;;
75758;SDS011;64371;47.566;19.086;2023-01-15T08:35:56;23.47;;;10.40;;
75758;SDS011;64371;47.566;19.086;2023-01-15T08:38:59;22.25;;;8.80;;
75758;SDS011;64371;47.566;19.086;2023-01-15T08:42:04;23.33;;;9.25;;
75758;SDS011;64371;47.566;19.086;2023-01-15T08:45:07;15.05;;;7.50;;
75758;SDS011;64371;47.566;19.086;2023-01-15T08:48:10;24.50;;;10.30;;
75758;SDS011;64371;47.566;19.086;2023-01-15T08:51:13;19.80;;;8.57;;
75758;SDS011;64371;47.566;19.086;2023-01-15T08:54:16;17.98;;;7.32;;
75758;SDS011;64371;47.566;19.086;2023-01-15T08:57:23;19.90;;;9.50;;
75758;SDS011;64371;47.566;19.086;2023-01-15T09:00:26;21.08;;;10.35;;
75758;SDS011;64371;47.566;19.086;2023-01-15T09:03:28;64.72;;;27.58;;
75758;SDS011;64371;47.566;19.086;2023-01-15T09:06:31;20.17;;;9.33;;
75758;SDS011;64371;47.566;19.086;2023-01-15T09:09:35;19.20;;;8.13;;
75758;SDS011;64371;47.566;19.086;2023-01-15T09:12:37;24.60;;;11.13;;
75758;SDS011;64371;47.566;19.086;2023-01-15T09:15:40;22.42;;;10.88;;
75758;SDS011;64371;47.566;19.086;2023-01-15T09:18:42;18.30;;;9.45;;
75758;SDS011;64371;47.566;19.086;2023-01-15T09:21:48;37.43;;;15.73;;
75758;SDS011;64371;47.566;19.086;2023-01-15T09:24:50;20.88;;;9.20;;
75758;SDS011;64371;47.566;19.086;2023-01-15T09:27:56;16.65;;;7.82;;
75758;SDS011;64371;47.566;19.086;2023-01-15T09:30:58;18.13;;;8.70;;
75758;SDS011;64371;47.566;19.086;2023-01-15T09:34:01;17.42;;;8.63;;
75758;SDS011;64371;47.566;19.086;2023-01-15T09:37:04;20.13;;;10.17;;
75758;SDS011;64371;47.566;19.086;2023-01-15T09:40:10;11.85;;;5.95;;
75758;SDS011;64371;47.566;19.086;2023-01-15T09:43:39;12.73;;;5.93;;
75758;SDS011;64371;47.566;19.086;2023-01-15T09:50:09;19.17;;;10.57;;
75758;SDS011;64371;47.566;19.086;2023-01-15T09:53:22;23.03;;;10.67;;
75758;SDS011;64371;47.566;19.086;2023-01-15T09:56:43;13.23;;;7.18;;
75758;SDS011;64371;47.566;19.086;2023-01-15T09:59:47;12.68;;;6.63;;
75758;SDS011;64371;47.566;19.086;2023-01-15T10:06:04;13.38;;;6.13;;
75758;SDS011;64371;47.566;19.086;2023-01-15T10:09:13;12.87;;;5.60;;
75758;SDS011;64371;47.566;19.086;2023-01-15T10:12:26;12.73;;;6.30;;
75758;SDS011;64371;47.566;19.086;2023-01-15T10:15:39;13.45;;;6.03;;
75758;SDS011;64371;47.566;19.086;2023-01-15T10:18:45;12.18;;;5.50;;
75758;SDS011;64371;47.566;19.086;2023-01-15T10:21:51;9.10;;;4.25;;
75758;SDS011;64371;47.566;19.086;2023-01-15T10:25:04;11.80;;;6.43;;
75758;SDS011;64371;47.566;19.086;2023-01-15T10:28:59;11.15;;;5.07;;
75758;SDS011;64371;47.566;19.086;2023-01-15T10:41:37;13.40;;;6.70;;
75758;SDS011;64371;47.566;19.086;2023-01-15T10:51:30;10.95;;;4.95;;
75758;SDS011;64371;47.566;19.086;2023-01-15T10:54:39;11.95;;;6.15;;
75758;SDS011;64371;47.566;19.086;2023-01-15T10:58:08;8.73;;;5.00;;
75758;SDS011;64371;47.566;19.086;2023-01-15T11:01:40;8.00;;;4.07;;
75758;SDS011;64371;47.566;19.086;2023-01-15T11:04:43;9.38;;;5.03;;
75758;SDS011;64371;47.566;19.086;2023-01-15T11:07:47;13.63;;;3.95;;
75758;SDS011;64371;47.566;19.086;2023-01-15T11:14:55;12.13;;;5.73;;
75758;SDS011;64371;47.566;19.086;2023-01-15T11:18:26;10.80;;;4.38;;
75758;SDS011;64371;47.566;19.086;2023-01-15T11:21:48;10.50;;;4.93;;
75758;SDS011;64371;47.566;19.086;2023-01-15T11:24:53;11.35;;;6.65;;
75758;SDS011;64371;47.566;19.086;2023-01-15T11:27:59;9.15;;;5.10;;
75758;SDS011;64371;47.566;19.086;2023-01-15T11:31:06;9.53;;;5.23;;
75758;SDS011;64371;47.566;19.086;2023-01-15T11:34:16;11.43;;;6.07;;
75758;SDS011;64371;47.566;19.086;2023-01-15T11:37:25;10.77;;;5.75;;
75758;SDS011;64371;47.566;19.086;2023-01-15T11:40:29;9.90;;;4.82;;
75758;SDS011;64371;47.566;19.086;2023-01-15T11:43:31;10.52;;;6.40;;
75758;SDS011;64371;47.566;19.086;2023-01-15T11:46:53;10.73;;;5.73;;
75758;SDS011;64371;47.566;19.086;2023-01-15T11:50:17;13.30;;;6.63;;
75758;SDS011;64371;47.566;19.086;2023-01-15T11:53:42;10.95;;;5.15;;
75758;SDS011;64371;47.566;19.086;2023-01-15T11:57:05;11.32;;;5.82;;
75758;SDS011;64371;47.566;19.086;2023-01-15T12:03:31;11.77;;;6.67;;
75758;SDS011;64371;47.566;19.086;2023-01-15T12:06:38;10.25;;;5.88;;
75758;SDS011;64371;47.566;19.086;2023-01-15T12:29:14;14.75;;;7.25;;
75758;SDS011;64371;47.566;19.086;2023-01-15T12:32:29;18.42;;;9.70;;
75758;SDS011;64371;47.566;19.086;2023-01-15T12:35:37;11.67;;;5.87;;
75758;SDS011;64371;47.566;19.086;2023-01-15T12:38:57;13.10;;;6.18;;
75758;SDS011;64371;47.566;19.086;2023-01-15T12:42:03;9.82;;;5.43;;
75758;SDS011;64371;47.566;19.086;2023-01-15T12:45:33;11.60;;;5.93;;
75758;SDS011;64371;47.566;19.086;2023-01-15T12:51:55;12.17;;;6.03;;
75758;SDS011;64371;47.566;19.086;2023-01-15T12:55:12;10.30;;;5.47;;
75758;SDS011;64371;47.566;19.086;2023-01-15T12:58:27;20.58;;;8.25;;
75758;SDS011;64371;47.566;19.086;2023-01-15T13:05:19;13.40;;;7.45;;
75758;SDS011;64371;47.566;19.086;2023-01-15T13:08:36;12.93;;;6.23;;
75758;SDS011;64371;47.566;19.086;2023-01-15T13:11:47;17.85;;;9.18;;
75758;SDS011;64371;47.566;19.086;2023-01-15T13:14:49;11.63;;;5.65;;
75758;SDS011;64371;47.566;19.086;2023-01-15T13:21:11;14.00;;;6.85;;
75758;SDS011;64371;47.566;19.086;2023-01-15T13:31:03;14.50;;;7.18;;
75758;SDS011;64371;47.566;19.086;2023-01-15T13:34:09;15.18;;;6.65;;
75758;SDS011;64371;47.566;19.086;2023-01-15T13:37:20;12.48;;;6.25;;
75758;SDS011;64371;47.566;19.086;2023-01-15T13:40:30;12.73;;;6.13;;
75758;SDS011;64371;47.566;19.086;2023-01-15T13:43:40;18.85;;;8.20;;
75758;SDS011;64371;47.566;19.086;2023-01-15T13:46:47;17.58;;;7.30;;
75758;SDS011;64371;47.566;19.086;2023-01-15T13:50:14;20.08;;;9.82;;
75758;SDS011;64371;47.566;19.086;2023-01-15T13:56:30;14.70;;;7.57;;
75758;SDS011;64371;47.566;19.086;2023-01-15T13:59:41;22.73;;;7.97;;
75758;SDS011;64371;47.566;19.086;2023-01-15T14:02:50;15.93;;;7.50;;
75758;SDS011;64371;47.566;19.086;2023-01-15T14:05:57;18.52;;;7.82;;
75758;SDS011;64371;47.566;19.086;2023-01-15T14:09:03;17.63;;;8.93;;
75758;SDS011;64371;47.566;19.086;2023-01-15T14:22:07;16.05;;;8.25;;
75758;SDS011;64371;47.566;19.086;2023-01-15T14:35:50;14.77;;;8.02;;
75758;SDS011;64371;47.566;19.086;2023-01-15T14:39:00;17.10;;;8.32;;
75758;SDS011;64371;47.566;19.086;2023-01-15T14:45:53;18.63;;;9.50;;
75758;SDS011;64371;47.566;19.086;2023-01-15T14:48:56;18.70;;;9.70;;
75758;SDS011;64371;47.566;19.086;2023-01-15T14:51:59;21.67;;;10.50;;
75758;SDS011;64371;47.566;19.086;2023-01-15T14:55:06;16.17;;;8.05;;
75758;SDS011;64371;47.566;19.086;2023-01-15T14:58:16;22.45;;;10.55;;
75758;SDS011;64371;47.566;19.086;2023-01-15T15:01:33;21.63;;;11.10;;
75758;SDS011;64371;47.566;19.086;2023-01-15T15:04:42;23.85;;;11.55;;
75758;SDS011;64371;47.566;19.086;2023-01-15T15:07:49;23.42;;;12.05;;
75758;SDS011;64371;47.566;19.086;2023-01-15T15:10:57;24.98;;;12.18;;
75758;SDS011;64371;47.566;19.086;2023-01-15T15:14:02;24.45;;;12.48;;
75758;SDS011;64371;47.566;19.086;2023-01-15T15:17:12;24.90;;;12.63;;
75758;SDS011;64371;47.566;19.086;2023-01-15T15:20:28;42.95;;;18.73;;
75758;SDS011;64371;47.566;19.086;2023-01-15T15:24:01;39.05;;;17.90;;
75758;SDS011;64371;47.566;19.086;2023-01-15T15:30:19;30.95;;;15.35;;
75758;SDS011;64371;47.566;19.086;2023-01-15T15:33:23;36.60;;;20.00;;
75758;SDS011;64371;47.566;19.086;2023-01-15T15:36:30;32.28;;;17.13;;
75758;SDS011;64371;47.566;19.086;2023-01-15T15:39:37;31.40;;;16.35;;
75758;SDS011;64371;47.566;19.086;2023-01-15T15:42:48;34.17;;;16.92;;
75758;SDS011;64371;47.566;19.086;2023-01-15T15:46:27;34.90;;;16.65;;
75758;SDS011;64371;47.566;19.086;2023-01-15T15:49:50;40.97;;;17.77;;
75758;SDS011;64371;47.566;19.086;2023-01-15T15:52:57;52.67;;;21.25;;
75758;SDS011;64371;47.566;19.086;2023-01-15T15:56:00;41.75;;;19.58;;
75758;SDS011;64371;47.566;19.086;2023-01-15T15:59:09;33.22;;;17.38;;
75758;SDS011;64371;47.566;19.086;2023-01-15T16:02:20;36.58;;;18.70;;
75758;SDS011;64371;47.566;19.086;2023-01-15T16:05:30;38.97;;;20.17;;
75758;SDS011;64371;47.566;19.086;2023-01-15T16:08:35;34.33;;;18.20;;
75758;SDS011;64371;47.566;19.086;2023-01-15T16:11:39;36.78;;;17.23;;
75758;SDS011;64371;47.566;19.086;2023-01-15T16:14:42;34.40;;;16.35;;
75758;SDS011;64371;47.566;19.086;2023-01-15T16:17:45;37.72;;;17.65;;
75758;SDS011;64371;47.566;19.086;2023-01-15T16:20:47;35.47;;;17.23;;
75758;SDS011;64371;47.566;19.086;2023-01-15T16:24:38;38.47;;;18.63;;
75758;SDS011;64371;47.566;19.086;2023-01-15T16:27:31;40.15;;;19.95;;
75758;SDS011;64371;47.566;19.086;2023-01-15T16:30:39;42.97;;;20.38;;
75758;SDS011;64371;47.566;19.086;2023-01-15T16:33:42;39.75;;;20.30;;
75758;SDS011;64371;47.566;19.086;2023-01-15T16:36:44;41.17;;;19.97;;
75758;SDS011;64371;47.566;19.086;2023-01-15T16:39:48;44.22;;;22.10;;
75758;SDS011;64371;47.566;19.086;2023-01-15T16:42:58;42.70;;;21.77;;
75758;SDS011;64371;47.566;19.086;2023-01-15T16:46:16;44.75;;;22.67;;
75758;SDS011;64371;47.566;19.086;2023-01-15T16:55:53;47.33;;;22.58;;
75758;SDS011;64371;47.566;19.086;2023-01-15T16:58:59;56.75;;;26.77;;
75758;SDS011;64371;47.566;19.086;2023-01-15T17:02:11;62.65;;;28.85;;
75758;SDS011;64371;47.566;19.086;2023-01-15T17:05:20;56.03;;;27.30;;
75758;SDS011;64371;47.566;19.086;2023-01-15T17:08:35;57.87;;;27.33;;
75758;SDS011;64371;47.566;19.086;2023-01-15T17:11:41;44.55;;;22.60;;
75758;SDS011;64371;47.566;19.086;2023-01-15T17:14:50;44.67;;;21.55;;
75758;SDS011;64371;47.566;19.086;2023-01-15T17:17:53;41.45;;;20.08;;
75758;SDS011;64371;47.566;19.086;2023-01-15T17:20:56;43.13;;;21.25;;
75758;SDS011;64371;47.566;19.086;2023-01-15T17:24:01;38.30;;;18.87;;
75758;SDS011;64371;47.566;19.086;2023-01-15T17:27:05;42.08;;;21.17;;
75758;SDS011;64371;47.566;19.086;2023-01-15T17:30:10;41.88;;;20.15;;
75758;SDS011;64371;47.566;19.086;2023-01-15T17:33:13;42.65;;;20.42;;
75758;SDS011;64371;47.566;19.086;2023-01-15T17:36:18;36.85;;;17.58;;
75758;SDS011;64371;47.566;19.086;2023-01-15T17:39:23;36.50;;;17.60;;
75758;SDS011;64371;47.566;19.086;2023-01-15T17:42:26;34.25;;;16.88;;
75758;SDS011;64371;47.566;19.086;2023-01-15T17:45:31;36.15;;;17.48;;
75758;SDS011;64371;47.566;19.086;2023-01-15T17:48:34;36.55;;;16.38;;
75758;SDS011;64371;47.566;19.086;2023-01-15T17:51:36;36.72;;;16.02;;
75758;SDS011;64371;47.566;19.086;2023-01-15T17:54:39;37.53;;;17.13;;
75758;SDS011;64371;47.566;19.086;2023-01-15T17:57:59;27.58;;;13.55;;
75758;SDS011;64371;47.566;19.086;2023-01-15T18:01:23;24.50;;;11.60;;
75758;SDS011;64371;47.566;19.086;2023-01-15T18:04:49;32.78;;;15.18;;
75758;SDS011;64371;47.566;19.086;2023-01-15T18:08:13;33.85;;;15.73;;
75758;SDS011;64371;47.566;19.086;2023-01-15T18:11:19;36.30;;;17.27;;
75758;SDS011;64371;47.566;19.086;2023-01-15T18:14:24;33.55;;;15.95;;
75758;SDS011;64371;47.566;19.086;2023-01-15T18:17:27;37.33;;;18.48;;
75758;SDS011;64371;47.566;19.086;2023-01-15T18:20:32;38.78;;;19.45;;
75758;SDS011;64371;47.566;19.086;2023-01-15T18:23:35;48.50;;;23.58;;
75758;SDS011;64371;47.566;19.086;2023-01-15T18:26:40;56.73;;;26.97;;
75758;SDS011;64371;47.566;19.086;2023-01-15T18:29:42;58.95;;;27.05;;
75758;SDS011;64371;47.566;19.086;2023-01-15T18:32:45;59.45;;;27.30;;
75758;SDS011;64371;47.566;19.086;2023-01-15T18:35:47;58.55;;;27.20;;
75758;SDS011;64371;47.566;19.086;2023-01-15T18:38:49;63.75;;;28.48;;
75758;SDS011;64371;47.566;19.086;2023-01-15T18:41:52;50.77;;;23.60;;
75758;SDS011;64371;47.566;19.086;2023-01-15T18:44:54;53.88;;;23.58;;
75758;SDS011;64371;47.566;19.086;2023-01-15T18:48:20;57.75;;;24.80;;
75758;SDS011;64371;47.566;19.086;2023-01-15T18:51:23;54.63;;;24.88;;
75758;SDS011;64371;47.566;19.086;2023-01-15T18:54:26;55.47;;;26.45;;
75758;SDS011;64371;47.566;19.086;2023-01-15T18:57:28;52.83;;;24.70;;
75758;SDS011;64371;47.566;19.086;2023-01-15T19:00:33;57.38;;;25.48;;
75758;SDS011;64371;47.566;19.086;2023-01-15T19:03:38;61.15;;;27.63;;
75758;SDS011;64371;47.566;19.086;2023-01-15T19:06:40;59.33;;;26.60;;
75758;SDS011;64371;47.566;19.086;2023-01-15T19:09:42;61.17;;;27.92;;
75758;SDS011;64371;47.566;19.086;2023-01-15T19:12:45;51.20;;;23.20;;
75758;SDS011;64371;47.566;19.086;2023-01-15T19:15:49;52.65;;;24.17;;
75758;SDS011;64371;47.566;19.086;2023-01-15T19:19:10;54.60;;;25.02;;
75758;SDS011;64371;47.566;19.086;2023-01-15T19:22:13;46.40;;;22.35;;
75758;SDS011;64371;47.566;19.086;2023-01-15T19:28:40;52.83;;;23.97;;
75758;SDS011;64371;47.566;19.086;2023-01-15T19:31:42;51.30;;;24.67;;
75758;SDS011;64371;47.566;19.086;2023-01-15T19:34:47;55.92;;;26.20;;
75758;SDS011;64371;47.566;19.086;2023-01-15T19:37:51;54.53;;;26.27;;
75758;SDS011;64371;47.566;19.086;2023-01-15T19:40:55;49.50;;;23.42;;
75758;SDS011;64371;47.566;19.086;2023-01-15T19:44:18;54.40;;;24.93;;
75758;SDS011;64371;47.566;19.086;2023-01-15T19:47:39;63.60;;;25.98;;
75758;SDS011;64371;47.566;19.086;2023-01-15T19:51:01;57.22;;;24.42;;
75758;SDS011;64371;47.566;19.086;2023-01-15T19:54:08;52.47;;;23.17;;
75758;SDS011;64371;47.566;19.086;2023-01-15T19:57:11;52.95;;;24.65;;
75758;SDS011;64371;47.566;19.086;2023-01-15T20:00:14;65.13;;;28.57;;
75758;SDS011;64371;47.566;19.086;2023-01-15T20:03:19;68.28;;;30.40;;
75758;SDS011;64371;47.566;19.086;2023-01-15T20:06:21;67.80;;;31.92;;
75758;SDS011;64371;47.566;19.086;2023-01-15T20:09:26;68.18;;;30.15;;
75758;SDS011;64371;47.566;19.086;2023-01-15T20:12:28;69.70;;;33.30;;
75758;SDS011;64371;47.566;19.086;2023-01-15T20:15:50;71.87;;;33.40;;